Terminal Aerodrome Forecast
Issued by NWS

Home | Current Version | Previous Version | Text Only | Print | Product List | Glossary On
Versions: 1 2 3 4 5 6 7 8 9 10 11 12 13
968
FTUS46 KSTO 241123
TAFRBL
TAF
KRBL 241123Z 2412/2512 VRB04KT P6SM BKN080
     FM242100 16008KT P6SM VCSH BKN060
     FM250400 VRB04KT P6SM BKN050=

USA.gov is the U.S. government's official web portal to all federal, state and local government web resources and services.